Time;durP1;ratioP1;P1;durP2;ratioP2;P2;SDS_P1;SDS_P2;PMS_P1;PMS_P2;Temp;Humidity;BMP_temperature;BMP_pressure;BME280_temperature;BME280_humidity;BME280_pressure;Samples;Min_cycle;Max_cycle;Signal;HPM_P1;HPM_P2
2023/11/06 00:02:56;;;;;;;3.60;1.50;;;;;;;8.36;100.00;97006.45;430160;1270;139392;-63
2023/11/06 00:13:03;;;;;;;2.30;1.80;;;;;;;8.35;100.00;97024.14;430378;1273;139275;-62
2023/11/06 00:23:10;;;;;;;2.00;1.70;;;;;;;8.32;100.00;97044.97;430830;1269;140205;-62
2023/11/06 00:33:16;;;;;;;1.40;1.30;;;;;;;8.33;100.00;97065.31;429707;1270;139348;-63
2023/11/06 00:43:22;;;;;;;3.10;2.30;;;;;;;8.29;100.00;97074.90;429934;1274;139212;-63
2023/11/06 00:53:28;;;;;;;2.80;2.00;;;;;;;8.25;100.00;97098.27;429820;1270;139370;-63
2023/11/06 01:03:34;;;;;;;4.00;3.60;;;;;;;8.23;100.00;97109.63;429673;1270;139438;-63
2023/11/06 01:13:40;;;;;;;2.50;2.30;;;;;;;8.18;100.00;97112.73;430308;1276;139604;-63
2023/11/06 01:23:46;;;;;;;3.10;2.50;;;;;;;8.13;100.00;97123.75;430512;1270;139195;-62
2023/11/06 01:33:52;;;;;;;1.80;1.50;;;;;;;8.12;100.00;97136.09;430596;1275;139199;-62
2023/11/06 01:43:58;;;;;;;4.50;1.90;;;;;;;8.14;100.00;97148.92;430032;1276;141106;-63
2023/11/06 01:54:05;;;;;;;1.90;1.60;;;;;;;8.20;100.00;97167.21;430812;1273;139531;-64
2023/11/06 02:04:14;;;;;;;1.50;1.40;;;;;;;8.27;100.00;97183.34;431798;1270;139395;-64
2023/11/06 02:14:20;;;;;;;1.30;1.20;;;;;;;8.32;100.00;97198.18;429317;1276;141915;-62
2023/11/06 02:24:26;;;;;;;0.80;0.80;;;;;;;8.39;100.00;97213.27;429514;1275;140194;-64
2023/11/06 02:34:32;;;;;;;0.70;0.70;;;;;;;8.50;100.00;97237.21;429498;1270;140416;-64
2023/11/06 02:44:38;;;;;;;1.10;0.70;;;;;;;8.61;100.00;97258.38;429864;1274;140020;-63
2023/11/06 02:54:45;;;;;;;1.00;0.80;;;;;;;8.65;100.00;97271.20;430740;1270;139830;-63
2023/11/06 03:04:51;;;;;;;1.20;0.70;;;;;;;8.71;100.00;97288.44;429581;1276;139812;-62
2023/11/06 03:14:57;;;;;;;1.60;0.90;;;;;;;8.73;100.00;97314.20;429803;1274;139657;-63
2023/11/06 03:25:03;;;;;;;0.80;0.70;;;;;;;8.80;100.00;97330.74;429567;1274;139225;-64
2023/11/06 03:35:10;;;;;;;0.80;0.50;;;;;;;8.79;100.00;97346.80;429882;1275;140480;-63
2023/11/06 03:45:16;;;;;;;1.70;0.90;;;;;;;8.65;100.00;97353.50;429613;1276;139933;-63
2023/11/06 03:55:22;;;;;;;0.50;0.40;;;;;;;8.55;100.00;97371.54;429716;1275;139101;-63
2023/11/06 04:05:28;;;;;;;0.80;0.70;;;;;;;8.53;100.00;97382.63;429759;1271;140890;-63
2023/11/06 04:15:34;;;;;;;3.50;1.00;;;;;;;8.61;100.00;97396.94;430239;1276;140986;-63
2023/11/06 04:25:40;;;;;;;0.60;0.60;;;;;;;8.69;100.00;97411.25;429712;1274;139556;-63
2023/11/06 04:35:46;;;;;;;2.10;0.60;;;;;;;8.77;100.00;97429.70;429459;1276;139581;-62
2023/11/06 04:45:52;;;;;;;1.30;0.80;;;;;;;8.83;100.00;97451.53;429896;1276;140146;-64
2023/11/06 04:55:58;;;;;;;1.30;0.70;;;;;;;8.86;100.00;97467.27;430294;1273;139170;-64
2023/11/06 05:06:04;;;;;;;1.00;0.60;;;;;;;8.88;100.00;97482.84;430093;1276;139586;-64
2023/11/06 05:16:11;;;;;;;1.10;0.50;;;;;;;8.88;100.00;97499.01;429833;1276;140972;-63
2023/11/06 05:26:17;;;;;;;0.90;0.60;;;;;;;8.89;100.00;97518.17;430676;1274;139408;-63
2023/11/06 05:36:23;;;;;;;1.20;0.80;;;;;;;8.88;100.00;97547.73;430277;1274;139178;-63
2023/11/06 05:46:29;;;;;;;1.90;0.70;;;;;;;8.86;100.00;97572.02;429446;1276;139567;-63
2023/11/06 05:56:35;;;;;;;0.80;0.60;;;;;;;8.81;100.00;97590.38;429622;1276;139378;-63
2023/11/06 06:06:41;;;;;;;1.10;0.50;;;;;;;8.80;100.00;97611.88;429880;1274;141102;-63
2023/11/06 06:16:49;;;;;;;0.70;0.50;;;;;;;8.80;100.00;97632.67;429645;1276;139544;-63
2023/11/06 06:26:55;;;;;;;3.90;0.60;;;;;;;8.80;100.00;97651.35;429617;1275;142284;-62
2023/11/06 06:37:01;;;;;;;0.50;0.50;;;;;;;8.81;100.00;97668.54;430223;1274;140590;-63
2023/11/06 06:47:08;;;;;;;1.10;0.70;;;;;;;8.79;100.00;97690.83;429838;1273;139390;-63
2023/11/06 06:57:13;;;;;;;1.60;0.50;;;;;;;8.81;100.00;97704.34;429808;1276;195406;-63
2023/11/06 07:07:19;;;;;;;6.10;2.10;;;;;;;8.84;100.00;97728.69;429909;1275;140925;-62
2023/11/06 07:17:25;;;;;;;2.60;0.70;;;;;;;8.85;100.00;97744.48;429676;1270;139746;-64
2023/11/06 07:27:31;;;;;;;1.10;1.00;;;;;;;8.83;100.00;97768.16;429928;1276;139748;-66
2023/11/06 07:37:37;;;;;;;2.20;1.10;;;;;;;8.85;100.00;97789.33;430203;1270;140324;-64
2023/11/06 07:47:43;;;;;;;0.80;0.60;;;;;;;8.90;100.00;97808.43;430232;1276;139309;-62
2023/11/06 07:57:50;;;;;;;3.20;1.10;;;;;;;9.06;100.00;97829.20;429528;1275;139964;-62
2023/11/06 08:07:57;;;;;;;3.40;1.40;;;;;;;9.25;100.00;97848.70;429646;1274;139324;-74
2023/11/06 08:18:03;;;;;;;0.50;0.50;;;;;;;9.46;100.00;97869.13;429986;1270;139446;-68
2023/11/06 08:28:10;;;;;;;3.40;0.80;;;;;;;10.91;100.00;97884.91;430203;1274;139798;-68
2023/11/06 08:38:16;;;;;;;1.40;0.70;;;;;;;16.35;99.18;97892.39;431189;1274;139753;-75
2023/11/06 08:48:21;;;;;;;2.10;1.20;;;;;;;19.27;90.56;97894.47;429918;1276;138424;-69
2023/11/06 08:58:27;;;;;;;1.20;0.80;;;;;;;21.98;82.35;97900.75;433696;1274;139495;-72
2023/11/06 09:08:34;;;;;;;3.10;1.60;;;;;;;23.00;76.56;97918.55;433458;1270;139142;-72
2023/11/06 09:18:40;;;;;;;2.10;0.70;;;;;;;22.95;73.01;97927.50;432039;1275;140509;-68
2023/11/06 09:28:48;;;;;;;0.60;0.40;;;;;;;21.15;69.66;97953.21;433803;1270;138458;-69
2023/11/06 09:38:55;;;;;;;1.40;0.60;;;;;;;17.88;69.72;97971.31;432437;1270;138657;-65
2023/11/06 09:49:11;;;;;;;1.10;0.80;;;;;;;15.49;71.61;98006.20;430019;1270;138685;-64
2023/11/06 09:59:21;;;;;;;5.00;0.90;;;;;;;14.32;73.48;98018.68;433599;1272;138678;-75
2023/11/06 10:09:28;;;;;;;3.90;0.80;;;;;;;13.57;75.12;98024.36;430915;1270;139365;-73
2023/11/06 10:19:34;;;;;;;2.50;0.70;;;;;;;13.28;76.87;98034.13;430083;1270;138398;-70
2023/11/06 10:29:57;;;;;;;1.10;0.60;;;;;;;13.20;77.72;98038.44;430659;1270;138430;-75
2023/11/06 10:40:06;;;;;;;1.90;0.50;;;;;;;12.87;77.84;98051.84;434081;1275;139902;-74
2023/11/06 10:50:18;;;;;;;1.70;0.90;;;;;;;12.43;78.80;98059.41;430012;1274;139948;-70
2023/11/06 11:00:24;;;;;;;2.60;1.10;;;;;;;12.53;80.12;98066.66;429475;1271;138622;-70
2023/11/06 11:10:31;;;;;;;1.80;0.70;;;;;;;12.56;79.85;98076.08;433575;1269;139307;-73
2023/11/06 11:20:55;;;;;;;3.10;1.30;;;;;;;12.45;80.19;98090.25;433175;1273;138618;-63
2023/11/06 11:31:34;;;;;;;1.00;0.80;;;;;;;12.52;80.73;98097.82;430144;1270;138684;-70
2023/11/06 11:42:00;;;;;;;3.40;1.80;;;;;;;12.45;80.40;98105.05;430541;1269;138663;-71
2023/11/06 11:52:07;;;;;;;0.70;0.60;;;;;;;12.32;80.49;98113.41;430763;1270;139087;-79
2023/11/06 12:02:26;;;;;;;1.80;1.00;;;;;;;12.04;81.10;98128.83;433549;1274;138626;-69
2023/11/06 12:12:35;;;;;;;2.40;1.00;;;;;;;11.79;82.71;98134.59;429848;1270;138784;-72
2023/11/06 12:22:50;;;;;;;1.20;0.80;;;;;;;11.88;83.84;98143.79;429675;1275;139894;-69
2023/11/06 12:32:56;;;;;;;4.50;1.00;;;;;;;12.00;84.93;98159.13;430125;1270;139265;-71
2023/11/06 12:43:04;;;;;;;2.10;1.50;;;;;;;11.96;85.24;98175.66;430572;1271;139305;-74
2023/11/06 12:53:10;;;;;;;2.60;1.10;;;;;;;11.80;86.65;98179.70;430061;1275;139687;-70
2023/11/06 13:03:16;;;;;;;1.70;1.10;;;;;;;11.73;86.70;98192.77;429799;1275;139771;-74
2023/11/06 13:13:22;;;;;;;1.70;0.90;;;;;;;11.53;86.76;98214.05;430418;1272;139346;-68
2023/11/06 13:23:29;;;;;;;2.70;0.90;;;;;;;11.34;86.88;98225.58;430242;1273;139394;-68
2023/11/06 13:33:35;;;;;;;2.90;1.40;;;;;;;11.17;87.78;98230.67;429924;1270;139435;-69
2023/11/06 13:43:42;;;;;;;2.10;1.30;;;;;;;11.32;88.41;98238.98;430313;1270;139234;-64
2023/11/06 13:53:50;;;;;;;3.20;1.40;;;;;;;11.24;88.46;98243.77;429877;1275;140436;-73
2023/11/06 14:03:56;;;;;;;3.30;1.30;;;;;;;10.94;89.38;98259.66;432928;1270;139758;-66
2023/11/06 14:14:05;;;;;;;1.50;0.70;;;;;;;10.73;90.28;98291.05;429984;1270;139229;-69
2023/11/06 14:24:12;;;;;;;2.70;0.90;;;;;;;10.54;90.71;98311.38;431943;1270;139948;-70
2023/11/06 14:34:20;;;;;;;1.30;0.60;;;;;;;10.11;92.01;98327.81;430069;1274;140211;-62
2023/11/06 14:44:26;;;;;;;3.30;1.80;;;;;;;9.78;94.01;98336.89;430207;1275;140418;-66
2023/11/06 14:54:34;;;;;;;3.60;1.90;;;;;;;9.56;95.99;98357.71;430224;1270;140059;-68
2023/11/06 15:04:43;;;;;;;2.00;1.10;;;;;;;9.31;97.30;98391.83;432449;1274;138993;-65
2023/11/06 15:14:49;;;;;;;3.10;1.20;;;;;;;9.00;98.01;98405.66;430707;1269;139703;-62
2023/11/06 15:24:58;;;;;;;2.90;1.10;;;;;;;8.63;99.03;98411.25;430320;1274;139135;-66
2023/11/06 15:35:06;;;;;;;0.90;0.90;;;;;;;8.36;99.99;98422.25;430000;1274;140091;-66
2023/11/06 15:45:19;;;;;;;2.50;0.90;;;;;;;8.14;100.00;98437.08;431081;1273;139394;-66
2023/11/06 15:55:25;;;;;;;2.50;1.30;;;;;;;7.97;100.00;98446.18;430917;1269;138976;-66
2023/11/06 16:05:32;;;;;;;2.60;1.70;;;;;;;7.87;100.00;98457.52;430380;1274;139289;-65
2023/11/06 16:15:38;;;;;;;5.60;2.80;;;;;;;7.79;100.00;98453.52;430106;1270;140930;-65
2023/11/06 16:25:44;;;;;;;4.90;2.70;;;;;;;7.71;100.00;98464.19;430379;1273;139188;-65
2023/11/06 16:35:50;;;;;;;6.30;3.00;;;;;;;7.45;100.00;98482.49;429886;1276;139177;-65
2023/11/06 16:45:56;;;;;;;1.80;1.50;;;;;;;7.30;100.00;98508.08;429952;1274;141289;-64
2023/11/06 16:56:02;;;;;;;11.10;5.20;;;;;;;7.44;100.00;98528.89;430193;1271;138976;-65
2023/11/06 17:06:09;;;;;;;20.30;8.40;;;;;;;7.50;100.00;98524.48;430035;1270;140415;-64
2023/11/06 17:16:16;;;;;;;13.40;8.20;;;;;;;7.40;100.00;98535.42;430304;1270;139428;-64
2023/11/06 17:26:22;;;;;;;31.90;15.90;;;;;;;7.14;100.00;98546.57;430353;1276;139372;-64
2023/11/06 17:36:30;;;;;;;28.90;11.30;;;;;;;6.80;100.00;98565.46;429980;1270;139450;-64
2023/11/06 17:46:36;;;;;;;35.20;17.60;;;;;;;6.56;100.00;98584.08;429908;1273;139925;-65
2023/11/06 17:56:42;;;;;;;28.30;16.90;;;;;;;6.42;100.00;98593.06;430201;1271;139493;-64
2023/11/06 18:06:48;;;;;;;20.30;11.20;;;;;;;6.32;100.00;98601.85;430369;1274;139614;-64
2023/11/06 18:16:54;;;;;;;17.40;12.50;;;;;;;6.25;100.00;98615.18;430810;1270;139407;-65
2023/11/06 18:27:02;;;;;;;26.00;12.30;;;;;;;6.23;100.00;98621.91;430745;1270;139376;-65
2023/11/06 18:37:11;;;;;;;14.80;9.00;;;;;;;6.43;100.00;98633.88;430216;1274;139531;-64
2023/11/06 18:47:18;;;;;;;13.00;8.60;;;;;;;6.37;100.00;98646.56;430412;1270;139290;-64
2023/11/06 18:57:24;;;;;;;13.50;9.60;;;;;;;6.21;100.00;98660.63;429973;1274;139440;-59
2023/11/06 19:07:30;;;;;;;14.10;9.80;;;;;;;6.05;100.00;98668.49;429858;1273;140431;-60
2023/11/06 19:17:37;;;;;;;13.40;11.00;;;;;;;5.93;100.00;98672.45;429943;1270;139393;-60
2023/11/06 19:27:43;;;;;;;11.00;8.20;;;;;;;5.89;100.00;98684.70;430021;1274;139621;-61
2023/11/06 19:37:49;;;;;;;17.20;10.30;;;;;;;5.88;100.00;98693.61;430343;1270;140432;-60
2023/11/06 19:47:55;;;;;;;8.10;5.60;;;;;;;5.99;100.00;98707.75;430069;1275;139905;-61
2023/11/06 19:58:01;;;;;;;11.20;5.30;;;;;;;6.20;100.00;98725.52;429812;1274;140139;-61
2023/11/06 20:08:07;;;;;;;6.70;4.70;;;;;;;6.44;100.00;98728.06;429924;1270;139503;-60
2023/11/06 20:18:14;;;;;;;9.10;5.60;;;;;;;6.52;100.00;98737.85;429912;1273;139110;-61
2023/11/06 20:28:20;;;;;;;7.80;4.70;;;;;;;6.47;100.00;98735.20;429860;1271;139373;-61
2023/11/06 20:38:26;;;;;;;11.60;6.10;;;;;;;6.45;100.00;98743.80;429845;1273;139897;-60
2023/11/06 20:48:32;;;;;;;6.40;5.20;;;;;;;6.32;100.00;98752.04;430383;1274;139312;-60
2023/11/06 20:58:39;;;;;;;10.40;4.40;;;;;;;6.14;100.00;98763.89;429958;1274;139266;-60
2023/11/06 21:08:45;;;;;;;8.20;5.20;;;;;;;6.02;100.00;98770.82;430274;1270;139991;-60
2023/11/06 21:18:51;;;;;;;10.20;5.10;;;;;;;5.89;100.00;98774.34;430625;1276;139420;-60
2023/11/06 21:28:57;;;;;;;6.60;4.80;;;;;;;5.76;100.00;98775.96;430132;1271;141117;-60
2023/11/06 21:39:04;;;;;;;12.50;7.20;;;;;;;5.71;100.00;98775.88;430738;1274;140783;-61
2023/11/06 21:49:10;;;;;;;12.30;7.70;;;;;;;5.67;100.00;98787.92;430027;1276;139169;-60
2023/11/06 21:59:19;;;;;;;11.70;7.80;;;;;;;5.61;100.00;98798.69;429721;1276;139474;-61
2023/11/06 22:09:26;;;;;;;11.00;7.10;;;;;;;5.51;100.00;98807.91;429811;1270;139736;-60
2023/11/06 22:19:31;;;;;;;;;;;;;;;5.30;100.00;98811.10;430329;1274;139248;-60
2023/11/06 22:29:37;;;;;;;9.10;5.90;;;;;;;5.05;100.00;98824.39;429770;1276;125647;-60
2023/11/06 22:39:44;;;;;;;18.10;10.10;;;;;;;4.97;100.00;98833.00;429889;1276;139315;-59
2023/11/06 22:49:49;;;;;;;9.40;5.90;;;;;;;4.94;100.00;98846.85;429922;1273;139527;-62
2023/11/06 22:59:56;;;;;;;6.30;4.80;;;;;;;4.85;100.00;98843.01;429697;1270;140084;-59
2023/11/06 23:10:04;;;;;;;5.40;4.20;;;;;;;4.82;100.00;98842.60;430307;1273;139171;-60
2023/11/06 23:20:14;;;;;;;11.60;5.20;;;;;;;4.72;100.00;98835.69;430463;1275;139225;-57
2023/11/06 23:30:20;;;;;;;7.30;5.30;;;;;;;4.62;100.00;98843.80;432642;1275;139153;-64
2023/11/06 23:40:26;;;;;;;6.20;3.50;;;;;;;4.59;100.00;98849.67;430174;1270;139747;-63
2023/11/06 23:50:35;;;;;;;8.10;4.10;;;;;;;4.57;100.00;98851.52;430005;1270;139714;-63
